createdAt,value
2017-11-29T00:00:50.366Z,0
2017-11-29T00:01:50.649Z,0
2017-11-29T00:02:50.661Z,0
2017-11-29T00:03:50.422Z,0
2017-11-29T00:04:50.696Z,0
2017-11-29T00:05:50.451Z,0
2017-11-29T00:06:50.971Z,0
2017-11-29T00:07:50.731Z,0
2017-11-29T00:08:50.740Z,0
2017-11-29T00:09:51.026Z,0
2017-11-29T00:10:50.775Z,0
2017-11-29T00:11:51.046Z,0
2017-11-29T00:12:51.061Z,0
2017-11-29T00:13:50.819Z,0
2017-11-29T00:14:50.833Z,0
2017-11-29T00:15:50.609Z,0
2017-11-29T00:16:50.867Z,0
2017-11-29T00:17:51.137Z,0
2017-11-29T00:18:51.194Z,0
2017-11-29T00:19:50.901Z,0
2017-11-29T00:20:51.175Z,0
2017-11-29T00:21:50.686Z,0
2017-11-29T00:22:51.209Z,0
2017-11-29T00:23:50.970Z,0
2017-11-29T00:24:51.250Z,0
2017-11-29T00:25:51.254Z,0
2017-11-29T00:26:51.039Z,0
2017-11-29T00:27:51.284Z,0
2017-11-29T00:28:51.305Z,0
2017-11-29T00:29:50.797Z,0
2017-11-29T00:30:51.068Z,0
2017-11-29T00:31:51.348Z,0
2017-11-29T00:32:51.106Z,0
2017-11-29T00:33:51.426Z,0
2017-11-29T00:34:51.131Z,0
2017-11-29T00:35:51.156Z,0
2017-11-29T00:36:51.170Z,0
2017-11-29T00:37:51.171Z,0
2017-11-29T00:38:51.188Z,0
2017-11-29T00:39:51.207Z,0
2017-11-29T00:40:51.215Z,0
2017-11-29T00:41:51.231Z,0
2017-11-29T00:42:51.500Z,0
2017-11-29T00:43:51.513Z,0
2017-11-29T00:44:51.283Z,0
2017-11-29T00:45:51.291Z,0
2017-11-29T00:46:51.561Z,0
2017-11-29T00:47:51.328Z,0
2017-11-29T00:48:51.129Z,0
2017-11-29T00:49:51.093Z,0
2017-11-29T00:50:51.626Z,0
2017-11-29T00:51:51.376Z,0
2017-11-29T00:52:51.391Z,0
2017-11-29T00:53:51.410Z,0
2017-11-29T00:54:51.688Z,0
2017-11-29T00:55:51.191Z,0
2017-11-29T00:56:51.724Z,0
2017-11-29T00:57:51.213Z,0
2017-11-29T00:58:51.500Z,0
2017-11-29T00:59:51.757Z,0
2017-11-29T01:00:51.768Z,0
2017-11-29T01:01:51.784Z,0
2017-11-29T01:02:51.799Z,0
2017-11-29T01:03:51.358Z,0
2017-11-29T01:04:51.827Z,0
2017-11-29T01:05:51.868Z,0
2017-11-29T01:06:51.608Z,0
2017-11-29T01:07:51.879Z,0
2017-11-29T01:08:51.897Z,0
2017-11-29T01:09:51.659Z,0
2017-11-29T01:10:51.671Z,0
2017-11-29T01:11:51.683Z,0
2017-11-29T01:12:51.951Z,0
2017-11-29T01:13:51.723Z,0
2017-11-29T01:14:51.732Z,0
2017-11-29T01:15:52.012Z,0
2017-11-29T01:16:52.009Z,0
2017-11-29T01:17:51.787Z,0
2017-11-29T01:18:52.048Z,0
2017-11-29T01:19:52.072Z,0
2017-11-29T01:20:51.968Z,0
2017-11-29T01:21:51.598Z,0
2017-11-29T01:22:52.106Z,0
2017-11-29T01:23:51.595Z,0
2017-11-29T01:24:51.866Z,0
2017-11-29T01:25:51.893Z,0
2017-11-29T01:26:51.897Z,0
2017-11-29T01:27:51.910Z,0
2017-11-29T01:28:51.926Z,0
2017-11-29T01:29:51.681Z,0
2017-11-29T01:30:52.218Z,0
2017-11-29T01:31:52.234Z,0
2017-11-29T01:32:52.021Z,0
2017-11-29T01:33:51.999Z,0
2017-11-29T01:34:52.265Z,0
2017-11-29T01:35:52.347Z,0
2017-11-29T01:36:52.055Z,0
2017-11-29T01:37:52.082Z,0
2017-11-29T01:38:52.071Z,0
2017-11-29T01:39:52.093Z,0
2017-11-29T01:40:52.355Z,0
2017-11-29T01:41:52.114Z,0
2017-11-29T01:42:52.145Z,0
2017-11-29T01:43:52.161Z,0
2017-11-29T01:44:52.166Z,0
2017-11-29T01:45:52.183Z,0
2017-11-29T01:46:51.946Z,0
2017-11-29T01:47:52.210Z,0
2017-11-29T01:48:51.963Z,0
2017-11-29T01:49:52.499Z,0
2017-11-29T01:50:52.510Z,0
2017-11-29T01:51:52.266Z,0
2017-11-29T01:52:52.297Z,0
2017-11-29T01:53:52.319Z,0
2017-11-29T01:54:52.566Z,0
2017-11-29T01:55:52.320Z,0
2017-11-29T01:56:52.338Z,0
2017-11-29T01:57:52.103Z,0
2017-11-29T01:58:52.621Z,0
2017-11-29T01:59:52.388Z,0
2017-11-29T02:00:52.404Z,0
2017-11-29T02:01:52.412Z,0
2017-11-29T02:02:52.431Z,0
2017-11-29T02:03:52.810Z,0
2017-11-29T02:04:52.478Z,0
2017-11-29T02:05:52.736Z,0
2017-11-29T02:06:52.235Z,0
2017-11-29T02:07:52.789Z,0
2017-11-29T02:08:52.817Z,0
2017-11-29T02:09:52.268Z,0
2017-11-29T02:10:52.281Z,0
2017-11-29T02:11:52.563Z,0
2017-11-29T02:12:52.576Z,0
2017-11-29T02:13:52.853Z,0
2017-11-29T02:14:52.608Z,0
2017-11-29T02:15:52.624Z,0
2017-11-29T02:16:52.885Z,0
2017-11-29T02:17:52.648Z,0
2017-11-29T02:18:52.919Z,0
2017-11-29T02:19:52.671Z,0
2017-11-29T02:20:52.682Z,0
2017-11-29T02:21:52.715Z,0
2017-11-29T02:22:52.712Z,0
2017-11-29T02:23:52.990Z,0
2017-11-29T02:24:52.488Z,0
2017-11-29T02:25:52.814Z,0
2017-11-29T02:26:53.032Z,0
2017-11-29T02:27:53.044Z,0
2017-11-29T02:28:53.070Z,0
2017-11-29T02:29:52.822Z,0
2017-11-29T02:30:53.099Z,0
2017-11-29T02:31:52.847Z,0
2017-11-29T02:32:52.873Z,0
2017-11-29T02:33:53.142Z,0
2017-11-29T02:34:52.637Z,0
2017-11-29T02:35:52.920Z,0
2017-11-29T02:36:52.929Z,0
2017-11-29T02:37:53.190Z,0
2017-11-29T02:38:52.951Z,0
2017-11-29T02:39:52.709Z,0
2017-11-29T02:40:53.259Z,0
2017-11-29T02:41:52.792Z,0
2017-11-29T02:42:53.280Z,0
2017-11-29T02:43:53.311Z,0
2017-11-29T02:44:53.319Z,0
2017-11-29T02:45:53.311Z,0
2017-11-29T02:46:53.067Z,0
2017-11-29T02:47:53.077Z,0
2017-11-29T02:48:52.844Z,0
2017-11-29T02:49:53.372Z,0
2017-11-29T02:50:53.382Z,0
2017-11-29T02:51:53.140Z,0
2017-11-29T02:52:53.440Z,0
2017-11-29T02:53:52.920Z,0
2017-11-29T02:54:53.466Z,0
2017-11-29T02:55:53.195Z,0
2017-11-29T02:56:53.258Z,0
2017-11-29T02:57:53.228Z,0
2017-11-29T02:58:53.238Z,0
2017-11-29T02:59:53.256Z,0
2017-11-29T03:00:53.544Z,0
2017-11-29T03:01:53.563Z,0
2017-11-29T03:02:53.562Z,0
2017-11-29T03:03:53.570Z,0
2017-11-29T03:04:53.585Z,0
2017-11-29T03:05:53.346Z,0
2017-11-29T03:06:53.628Z,0
2017-11-29T03:07:53.684Z,0
2017-11-29T03:08:53.390Z,0
2017-11-29T03:09:53.145Z,0
2017-11-29T03:10:53.423Z,0
2017-11-29T03:11:53.480Z,0
2017-11-29T03:12:53.191Z,0
2017-11-29T03:13:53.719Z,0
2017-11-29T03:14:53.479Z,0
2017-11-29T03:15:53.757Z,0
2017-11-29T03:16:53.522Z,0
2017-11-29T03:17:53.264Z,0
2017-11-29T03:18:53.849Z,0
2017-11-29T03:19:53.816Z,0
2017-11-29T03:20:53.568Z,0
2017-11-29T03:21:53.582Z,0
2017-11-29T03:22:53.846Z,0
2017-11-29T03:23:53.874Z,0
2017-11-29T03:24:53.880Z,0
2017-11-29T03:25:53.914Z,0
2017-11-29T03:26:53.973Z,0
2017-11-29T03:27:53.664Z,0
2017-11-29T03:28:53.684Z,0
2017-11-29T03:29:53.700Z,0
2017-11-29T03:30:53.720Z,0
2017-11-29T03:31:53.721Z,0
2017-11-29T03:32:53.480Z,0
2017-11-29T03:33:54.013Z,0
2017-11-29T03:34:53.766Z,0
2017-11-29T03:35:53.783Z,0
2017-11-29T03:36:53.794Z,0
2017-11-29T03:37:54.089Z,0
2017-11-29T03:38:53.825Z,0
2017-11-29T03:39:54.098Z,0
2017-11-29T03:40:54.123Z,0
2017-11-29T03:41:54.127Z,0
2017-11-29T03:42:53.629Z,0
2017-11-29T03:43:53.666Z,0
2017-11-29T03:44:53.915Z,0
2017-11-29T03:45:54.197Z,0
2017-11-29T03:46:53.941Z,0
2017-11-29T03:47:53.972Z,0
2017-11-29T03:48:53.985Z,0
2017-11-29T03:49:53.987Z,0
2017-11-29T03:50:54.277Z,0
2017-11-29T03:51:54.270Z,0
2017-11-29T03:52:53.774Z,0
2017-11-29T03:53:53.788Z,0
2017-11-29T03:54:54.067Z,0
2017-11-29T03:55:53.811Z,0
2017-11-29T03:56:54.095Z,0
2017-11-29T03:57:54.102Z,0
2017-11-29T03:58:54.126Z,0
2017-11-29T03:59:54.454Z,0
2017-11-29T04:00:54.150Z,0
2017-11-29T04:01:54.420Z,0
2017-11-29T04:02:54.198Z,0
2017-11-29T04:03:54.464Z,0
2017-11-29T04:04:54.237Z,0
2017-11-29T04:05:54.224Z,0
2017-11-29T04:06:54.233Z,0
2017-11-29T04:07:54.253Z,0
2017-11-29T04:08:54.519Z,0
2017-11-29T04:09:54.278Z,0
2017-11-29T04:10:54.324Z,0
2017-11-29T04:11:54.308Z,0
2017-11-29T04:12:54.322Z,0
2017-11-29T04:13:54.598Z,0
2017-11-29T04:14:54.658Z,0
2017-11-29T04:15:54.404Z,0
2017-11-29T04:16:54.378Z,0
2017-11-29T04:17:54.133Z,0
2017-11-29T04:18:54.668Z,0
2017-11-29T04:19:54.438Z,0
2017-11-29T04:20:54.701Z,0
2017-11-29T04:21:54.470Z,0
2017-11-29T04:22:54.482Z,0
2017-11-29T04:23:54.498Z,0
2017-11-29T04:24:54.765Z,0
2017-11-29T04:25:54.515Z,0
2017-11-29T04:26:54.791Z,0
2017-11-29T04:27:54.548Z,0
2017-11-29T04:28:54.559Z,0
2017-11-29T04:29:54.623Z,0
2017-11-29T04:30:54.585Z,0
2017-11-29T04:31:54.602Z,0
2017-11-29T04:32:54.865Z,0
2017-11-29T04:33:54.644Z,0
2017-11-29T04:34:54.897Z,0
2017-11-29T04:35:54.909Z,0
2017-11-29T04:36:54.952Z,0
2017-11-29T04:37:54.946Z,0
2017-11-29T04:38:54.710Z,0
2017-11-29T04:39:54.711Z,0
2017-11-29T04:40:54.740Z,0
2017-11-29T04:41:55.012Z,0
2017-11-29T04:42:55.030Z,0
2017-11-29T04:43:54.780Z,0
2017-11-29T04:44:54.599Z,0
2017-11-29T04:45:54.812Z,0
2017-11-29T04:46:54.825Z,0
2017-11-29T04:47:54.834Z,0
2017-11-29T04:48:54.868Z,0
2017-11-29T04:49:54.865Z,0
2017-11-29T04:50:54.884Z,0
2017-11-29T04:51:54.900Z,0
2017-11-29T04:52:54.927Z,0
2017-11-29T04:53:54.927Z,0
2017-11-29T04:54:54.941Z,0
2017-11-29T04:55:55.205Z,0
2017-11-29T04:56:54.967Z,0
2017-11-29T04:57:54.982Z,0
2017-11-29T04:58:55.252Z,0
2017-11-29T04:59:55.066Z,0
2017-11-29T05:00:54.770Z,0
2017-11-29T05:01:55.038Z,0
2017-11-29T05:02:55.065Z,0
2017-11-29T05:03:55.327Z,0
2017-11-29T05:04:55.357Z,0
2017-11-29T05:05:54.584Z,0
2017-11-29T05:06:55.121Z,0
2017-11-29T05:07:55.130Z,0
2017-11-29T05:08:55.399Z,0
2017-11-29T05:09:55.161Z,0
2017-11-29T05:10:55.432Z,0
2017-11-29T05:11:55.184Z,0
2017-11-29T05:12:55.195Z,0
2017-11-29T05:13:55.222Z,0
2017-11-29T05:14:55.284Z,0
2017-11-29T05:15:54.984Z,0
2017-11-29T05:16:55.527Z,0
2017-11-29T05:17:55.275Z,0
2017-11-29T05:18:55.289Z,0
2017-11-29T05:19:55.310Z,0
2017-11-29T05:20:55.580Z,0
2017-11-29T05:21:55.603Z,0
2017-11-29T05:22:55.352Z,0
2017-11-29T05:23:55.662Z,0
2017-11-29T05:24:55.638Z,0
2017-11-29T05:25:55.395Z,0
2017-11-29T05:26:55.149Z,0
2017-11-29T05:27:55.429Z,0
2017-11-29T05:28:55.437Z,0
2017-11-29T05:29:55.769Z,0
2017-11-29T05:30:55.203Z,0
2017-11-29T05:31:55.747Z,0
2017-11-29T05:32:55.496Z,0
2017-11-29T05:33:55.256Z,0
2017-11-29T05:34:55.524Z,0
2017-11-29T05:35:55.798Z,0
2017-11-29T05:36:55.301Z,0
2017-11-29T05:37:55.831Z,0
2017-11-29T05:38:55.654Z,0
2017-11-29T05:39:55.448Z,0
2017-11-29T05:40:55.625Z,0
2017-11-29T05:41:55.649Z,0
2017-11-29T05:42:55.642Z,0
2017-11-29T05:43:55.654Z,0
2017-11-29T05:44:55.467Z,0
2017-11-29T05:45:55.431Z,0
2017-11-29T05:46:55.964Z,0
2017-11-29T05:47:55.711Z,0
2017-11-29T05:48:55.989Z,0
2017-11-29T05:49:56.027Z,0
2017-11-29T05:50:55.764Z,0
2017-11-29T05:51:56.037Z,0
2017-11-29T05:52:55.788Z,0
2017-11-29T05:53:56.068Z,0
2017-11-29T05:54:55.831Z,0
2017-11-29T05:55:55.585Z,0
2017-11-29T05:56:56.111Z,0
2017-11-29T05:57:55.871Z,0
2017-11-29T05:58:56.170Z,0
2017-11-29T05:59:56.222Z,0
2017-11-29T06:00:55.928Z,0
2017-11-29T06:01:55.933Z,0
2017-11-29T06:02:55.944Z,0
2017-11-29T06:03:56.216Z,0
2017-11-29T06:04:56.227Z,0
2017-11-29T06:05:55.733Z,0
2017-11-29T06:06:56.012Z,0
2017-11-29T06:07:56.022Z,0
2017-11-29T06:08:55.792Z,0
2017-11-29T06:09:56.307Z,0
2017-11-29T06:10:56.327Z,0
2017-11-29T06:11:56.083Z,0
2017-11-29T06:12:56.362Z,0
2017-11-29T06:13:56.114Z,0
2017-11-29T06:14:56.407Z,0
2017-11-29T06:15:56.156Z,4
2017-11-29T06:16:56.157Z,4
2017-11-29T06:17:55.925Z,4
2017-11-29T06:18:56.505Z,4
2017-11-29T06:19:56.206Z,4
2017-11-29T06:20:56.494Z,4
2017-11-29T06:21:56.500Z,4
2017-11-29T06:22:56.516Z,8
2017-11-29T06:23:56.281Z,4
2017-11-29T06:24:56.288Z,8
2017-11-29T06:25:56.041Z,8
2017-11-29T06:26:56.610Z,8
2017-11-29T06:27:56.625Z,12
2017-11-29T06:28:56.351Z,12
2017-11-29T06:29:56.365Z,16
2017-11-29T06:30:56.659Z,20
2017-11-29T06:31:56.660Z,20
2017-11-29T06:32:56.415Z,20
2017-11-29T06:33:56.740Z,24
2017-11-29T06:34:56.726Z,24
2017-11-29T06:35:56.455Z,28
2017-11-29T06:36:56.732Z,36
2017-11-29T06:37:56.744Z,36
2017-11-29T06:38:56.776Z,40
2017-11-29T06:39:56.261Z,44
2017-11-29T06:40:56.533Z,48
2017-11-29T06:41:56.807Z,52
2017-11-29T06:42:56.572Z,60
2017-11-29T06:43:56.884Z,68
2017-11-29T06:44:56.611Z,76
2017-11-29T06:45:56.868Z,84
2017-11-29T06:46:56.629Z,92
2017-11-29T06:47:56.912Z,100
2017-11-29T06:48:56.970Z,112
2017-11-29T06:49:56.665Z,124
2017-11-29T06:50:56.703Z,136
2017-11-29T06:51:56.699Z,144
2017-11-29T06:52:56.205Z,152
2017-11-29T06:53:56.729Z,164
2017-11-29T06:54:56.513Z,180
2017-11-29T06:55:56.775Z,196
2017-11-29T06:56:57.034Z,220
2017-11-29T06:57:56.798Z,240
2017-11-29T06:58:57.067Z,252
2017-11-29T06:59:56.565Z,260
2017-11-29T07:00:57.098Z,260
2017-11-29T07:01:57.121Z,256
2017-11-29T07:02:56.884Z,248
2017-11-29T07:03:56.884Z,260
2017-11-29T07:04:56.900Z,276
2017-11-29T07:05:56.910Z,296
2017-11-29T07:06:57.208Z,312
2017-11-29T07:07:56.997Z,324
2017-11-29T07:08:56.970Z,328
2017-11-29T07:09:56.981Z,332
2017-11-29T07:10:57.266Z,340
2017-11-29T07:11:57.013Z,352
2017-11-29T07:12:56.816Z,372
2017-11-29T07:13:57.040Z,396
2017-11-29T07:14:57.338Z,424
2017-11-29T07:15:57.066Z,448
2017-11-29T07:16:57.343Z,468
2017-11-29T07:17:57.362Z,488
2017-11-29T07:18:57.124Z,504
2017-11-29T07:19:56.876Z,532
2017-11-29T07:20:56.641Z,552
2017-11-29T07:21:57.428Z,568
2017-11-29T07:22:57.451Z,560
2017-11-29T07:23:56.950Z,536
2017-11-29T07:24:57.211Z,524
2017-11-29T07:25:57.281Z,532
2017-11-29T07:26:56.986Z,564
2017-11-29T07:27:57.514Z,616
2017-11-29T07:28:57.276Z,676
2017-11-29T07:29:57.033Z,720
2017-11-29T07:30:57.095Z,752
2017-11-29T07:31:57.330Z,788
2017-11-29T07:32:57.338Z,812
2017-11-29T07:33:57.367Z,840
2017-11-29T07:34:57.646Z,876
2017-11-29T07:35:57.659Z,908
2017-11-29T07:36:57.661Z,936
2017-11-29T07:37:57.675Z,964
2017-11-29T07:38:57.186Z,1000
2017-11-29T07:39:57.712Z,1024
2017-11-29T07:40:57.519Z,1052
2017-11-29T07:41:57.738Z,1096
2017-11-29T07:42:57.507Z,1156
2017-11-29T07:43:57.510Z,1232
2017-11-29T07:44:57.546Z,1304
2017-11-29T07:45:57.557Z,1368
2017-11-29T07:46:57.825Z,1412
2017-11-29T07:47:57.832Z,1432
2017-11-29T07:48:57.867Z,1432
2017-11-29T07:49:57.866Z,1408
2017-11-29T07:50:57.623Z,1384
2017-11-29T07:51:57.386Z,1360
2017-11-29T07:52:57.915Z,1300
2017-11-29T07:53:57.418Z,1240
2017-11-29T07:54:57.949Z,1240
2017-11-29T07:55:58.019Z,1292
2017-11-29T07:56:57.971Z,1384
2017-11-29T07:57:57.484Z,1472
2017-11-29T07:58:58.009Z,1548
2017-11-29T07:59:57.512Z,1644
2017-11-29T08:00:57.786Z,1756
2017-11-29T08:01:57.804Z,1840
2017-11-29T08:02:58.134Z,1840
2017-11-29T08:03:58.091Z,1764
2017-11-29T08:04:57.873Z,1712
2017-11-29T08:05:57.870Z,1768
2017-11-29T08:06:57.898Z,1880
2017-11-29T08:07:58.178Z,1984
2017-11-29T08:08:57.921Z,2036
2017-11-29T08:09:58.195Z,2048
2017-11-29T08:10:58.000Z,2036
2017-11-29T08:11:58.236Z,1976
2017-11-29T08:12:58.253Z,1916
2017-11-29T08:13:58.257Z,1848
2017-11-29T08:14:58.270Z,1780
2017-11-29T08:15:58.279Z,1708
2017-11-29T08:16:58.301Z,1612
2017-11-29T08:17:58.323Z,1552
2017-11-29T08:18:57.562Z,1496
2017-11-29T08:19:58.108Z,1428
2017-11-29T08:20:58.107Z,1372
2017-11-29T08:21:58.123Z,1296
2017-11-29T08:22:58.409Z,1204
2017-11-29T08:23:58.421Z,1148
2017-11-29T08:24:58.435Z,1128
2017-11-29T08:25:58.246Z,1020
2017-11-29T08:26:58.468Z,916
2017-11-29T08:27:58.231Z,844
2017-11-29T08:28:58.501Z,776
2017-11-29T08:29:58.540Z,740
2017-11-29T08:30:58.532Z,788
2017-11-29T08:31:58.555Z,916
2017-11-29T08:32:58.302Z,1092
2017-11-29T08:33:58.328Z,1324
2017-11-29T08:34:58.084Z,1596
2017-11-29T08:35:58.102Z,1844
2017-11-29T08:36:58.377Z,2032
2017-11-29T08:37:58.384Z,2112
2017-11-29T08:38:58.401Z,2196
2017-11-29T08:39:58.423Z,2268
2017-11-29T08:40:58.703Z,2360
2017-11-29T08:41:58.450Z,2452
2017-11-29T08:42:58.719Z,2496
2017-11-29T08:43:58.742Z,2496
2017-11-29T08:44:58.803Z,2464
2017-11-29T08:45:58.516Z,2420
2017-11-29T08:46:58.793Z,2348
2017-11-29T08:47:58.807Z,2288
2017-11-29T08:48:58.823Z,2172
2017-11-29T08:49:58.329Z,2096
2017-11-29T08:50:58.600Z,2000
2017-11-29T08:51:58.873Z,1908
2017-11-29T08:52:58.650Z,1868
2017-11-29T08:53:58.651Z,1892
2017-11-29T08:54:58.949Z,1968
2017-11-29T08:55:58.938Z,2120
2017-11-29T08:56:58.698Z,2340
2017-11-29T08:57:59.056Z,2564
2017-11-29T08:58:58.470Z,2756
2017-11-29T08:59:58.776Z,2996
2017-11-29T09:00:59.029Z,3224
2017-11-29T09:01:59.037Z,3376
2017-11-29T09:02:58.816Z,3456
2017-11-29T09:03:59.075Z,3508
2017-11-29T09:04:58.826Z,3640
2017-11-29T09:05:58.848Z,3816
2017-11-29T09:06:58.865Z,4016
2017-11-29T09:07:58.881Z,4200
2017-11-29T09:08:58.640Z,4304
2017-11-29T09:09:58.934Z,4360
2017-11-29T09:10:59.184Z,4412
2017-11-29T09:11:58.691Z,4500
2017-11-29T09:12:58.707Z,4652
2017-11-29T09:13:59.234Z,4868
2017-11-29T09:14:59.041Z,5092
2017-11-29T09:15:59.271Z,5284
2017-11-29T09:16:59.044Z,5676
2017-11-29T09:17:59.045Z,5508
2017-11-29T09:18:59.077Z,5348
2017-11-29T09:19:59.080Z,5080
2017-11-29T09:20:59.362Z,4720
2017-11-29T09:21:59.114Z,4388
2017-11-29T09:22:59.127Z,4192
2017-11-29T09:23:59.414Z,3968
2017-11-29T09:24:59.172Z,3664
2017-11-29T09:25:59.176Z,3480
2017-11-29T09:26:59.474Z,3344
2017-11-29T09:27:59.218Z,3264
2017-11-29T09:28:59.228Z,3224
2017-11-29T09:29:59.509Z,3300
2017-11-29T09:30:59.271Z,3532
2017-11-29T09:31:59.024Z,3920
2017-11-29T09:32:59.295Z,4408
2017-11-29T09:33:59.568Z,4980
2017-11-29T09:34:59.332Z,5520
2017-11-29T09:35:59.625Z,5864
2017-11-29T09:36:59.619Z,5840
2017-11-29T09:37:59.638Z,5596
2017-11-29T09:38:59.659Z,5432
2017-11-29T09:39:59.685Z,5040
2017-11-29T09:40:59.436Z,4596
2017-11-29T09:41:58.957Z,4352
2017-11-29T09:42:59.461Z,4236
2017-11-29T09:43:59.491Z,4164
2017-11-29T09:44:59.501Z,4144
2017-11-29T09:45:59.517Z,4120
2017-11-29T09:46:59.559Z,4200
2017-11-29T09:47:59.807Z,4456
2017-11-29T09:48:59.360Z,4832
2017-11-29T09:49:59.836Z,5296
2017-11-29T09:50:59.855Z,5592
2017-11-29T09:51:59.881Z,5868
2017-11-29T09:52:59.375Z,6080
2017-11-29T09:53:59.409Z,6404
2017-11-29T09:54:59.664Z,6736
2017-11-29T09:55:59.951Z,6976
2017-11-29T09:56:59.960Z,7272
2017-11-29T09:57:59.983Z,7476
2017-11-29T09:58:59.986Z,7692
2017-11-29T09:59:59.750Z,7756
2017-11-29T10:01:00.026Z,7672
2017-11-29T10:02:00.042Z,7672
2017-11-29T10:03:00.060Z,7624
2017-11-29T10:03:59.875Z,8916
2017-11-29T10:04:59.871Z,9684
2017-11-29T10:05:59.850Z,6560
2017-11-29T10:07:00.137Z,6684
2017-11-29T10:07:59.629Z,6664
2017-11-29T10:09:00.162Z,6460
2017-11-29T10:09:59.915Z,6004
2017-11-29T10:10:59.940Z,5388
2017-11-29T10:11:59.971Z,4760
2017-11-29T10:12:59.973Z,4408
2017-11-29T10:14:00.256Z,4324
2017-11-29T10:14:59.750Z,4348
2017-11-29T10:16:00.297Z,4332
2017-11-29T10:16:59.784Z,4128
2017-11-29T10:18:00.316Z,3808
2017-11-29T10:19:00.336Z,3504
2017-11-29T10:19:59.842Z,3344
2017-11-29T10:20:59.598Z,3260
2017-11-29T10:21:59.877Z,3292
2017-11-29T10:22:59.886Z,3292
2017-11-29T10:23:59.904Z,3156
2017-11-29T10:25:00.441Z,3032
2017-11-29T10:25:59.946Z,2924
2017-11-29T10:27:00.230Z,2876
2017-11-29T10:28:00.503Z,2864
2017-11-29T10:29:00.562Z,2928
2017-11-29T10:30:00.269Z,2972
2017-11-29T10:31:00.555Z,2988
2017-11-29T10:32:00.306Z,2972
2017-11-29T10:33:00.064Z,2936
2017-11-29T10:34:00.593Z,2904
2017-11-29T10:35:00.101Z,2812
2017-11-29T10:36:00.380Z,2704
2017-11-29T10:37:00.386Z,2612
2017-11-29T10:38:00.664Z,2504
2017-11-29T10:39:00.445Z,2408
2017-11-29T10:40:00.450Z,2380
2017-11-29T10:41:00.506Z,2444
2017-11-29T10:42:00.728Z,2580
2017-11-29T10:43:00.487Z,2740
2017-11-29T10:44:00.507Z,2836
2017-11-29T10:45:00.265Z,2812
2017-11-29T10:46:00.537Z,2688
2017-11-29T10:47:00.557Z,2544
2017-11-29T10:48:00.574Z,2420
2017-11-29T10:49:00.586Z,2372
2017-11-29T10:50:00.864Z,2404
2017-11-29T10:51:00.875Z,2460
2017-11-29T10:52:00.377Z,2436
2017-11-29T10:53:00.937Z,2304
2017-11-29T10:54:00.426Z,2140
2017-11-29T10:55:00.703Z,1996
2017-11-29T10:56:00.957Z,1892
2017-11-29T10:57:01.025Z,1808
2017-11-29T10:58:01.036Z,1744
2017-11-29T10:59:00.501Z,1712
2017-11-29T11:00:01.037Z,1720
2017-11-29T11:01:00.815Z,1752
2017-11-29T11:02:00.543Z,1792
2017-11-29T11:03:01.072Z,1832
2017-11-29T11:04:00.835Z,1868
2017-11-29T11:05:00.851Z,1908
2017-11-29T11:06:00.871Z,1912
2017-11-29T11:07:00.625Z,1876
2017-11-29T11:08:01.160Z,1812
2017-11-29T11:09:00.936Z,1716
2017-11-29T11:10:01.198Z,1616
2017-11-29T11:11:01.208Z,1496
2017-11-29T11:12:01.023Z,1460
2017-11-29T11:13:00.977Z,1548
2017-11-29T11:14:00.998Z,1724
2017-11-29T11:15:01.282Z,1944
2017-11-29T11:16:01.033Z,2080
2017-11-29T11:17:01.099Z,2140
2017-11-29T11:18:01.060Z,2208
2017-11-29T11:19:01.345Z,2296
2017-11-29T11:20:01.106Z,2352
2017-11-29T11:21:01.375Z,2308
2017-11-29T11:22:01.132Z,2172
2017-11-29T11:23:01.409Z,2048
2017-11-29T11:24:01.163Z,1960
2017-11-29T11:25:01.455Z,1888
2017-11-29T11:26:00.957Z,1792
2017-11-29T11:27:01.470Z,1708
2017-11-29T11:28:00.715Z,1608
2017-11-29T11:29:01.253Z,1512
2017-11-29T11:30:01.336Z,1440
2017-11-29T11:31:01.537Z,1372
2017-11-29T11:32:01.552Z,1316
2017-11-29T11:33:01.596Z,1300
2017-11-29T11:34:01.595Z,1340
2017-11-29T11:35:01.608Z,1356
2017-11-29T11:36:01.653Z,1284
2017-11-29T11:37:01.637Z,1200
2017-11-29T11:38:01.402Z,1148
2017-11-29T11:39:01.408Z,1092
2017-11-29T11:40:01.427Z,1000
2017-11-29T11:41:01.715Z,972
2017-11-29T11:42:01.764Z,1004
2017-11-29T11:43:01.473Z,972
2017-11-29T11:44:01.494Z,900
2017-11-29T11:45:01.816Z,856
2017-11-29T11:46:01.778Z,876
2017-11-29T11:47:01.545Z,924
2017-11-29T11:48:01.804Z,972
2017-11-29T11:49:01.837Z,1040
2017-11-29T11:50:01.364Z,1096
2017-11-29T11:51:01.602Z,1144
2017-11-29T11:52:01.887Z,1208
2017-11-29T11:53:01.901Z,1264
2017-11-29T11:54:01.911Z,1288
2017-11-29T11:55:01.666Z,1300
2017-11-29T11:56:01.941Z,1340
2017-11-29T11:57:01.959Z,1432
2017-11-29T11:58:01.999Z,1572
2017-11-29T11:59:02.008Z,1720
2017-11-29T12:00:02.050Z,1832
2017-11-29T12:01:02.030Z,1900
2017-11-29T12:02:02.037Z,1976
2017-11-29T12:03:01.801Z,2060
2017-11-29T12:04:01.559Z,2172
2017-11-29T12:05:02.080Z,2304
2017-11-29T12:06:02.107Z,2404
2017-11-29T12:07:02.120Z,2436
2017-11-29T12:08:02.137Z,2428
2017-11-29T12:09:01.636Z,2436
2017-11-29T12:10:01.915Z,2572
2017-11-29T12:11:01.410Z,2836
2017-11-29T12:12:02.197Z,3140
2017-11-29T12:13:02.227Z,3288
2017-11-29T12:14:01.718Z,3268
2017-11-29T12:15:01.999Z,3188
2017-11-29T12:16:01.748Z,3124
2017-11-29T12:17:02.080Z,3140
2017-11-29T12:18:02.301Z,3268
2017-11-29T12:19:02.053Z,3344
2017-11-29T12:20:02.074Z,3248
2017-11-29T12:21:02.416Z,3040
2017-11-29T12:22:02.377Z,2780
2017-11-29T12:23:02.386Z,2556
2017-11-29T12:24:01.880Z,2412
2017-11-29T12:25:02.160Z,2356
2017-11-29T12:26:02.443Z,2412
2017-11-29T12:27:02.188Z,2568
2017-11-29T12:28:02.205Z,2744
2017-11-29T12:29:02.220Z,2860
2017-11-29T12:30:01.978Z,2900
2017-11-29T12:31:02.260Z,2860
2017-11-29T12:32:02.521Z,2776
2017-11-29T12:33:02.570Z,2680
2017-11-29T12:34:02.316Z,2664
2017-11-29T12:35:02.070Z,2792
2017-11-29T12:36:02.635Z,3080
2017-11-29T12:37:02.349Z,3568
2017-11-29T12:38:02.623Z,4220
2017-11-29T12:39:02.644Z,4804
2017-11-29T12:40:02.668Z,5196
2017-11-29T12:41:02.417Z,5128
2017-11-29T12:42:02.707Z,4480
2017-11-29T12:43:02.913Z,3548
2017-11-29T12:44:02.727Z,3068
2017-11-29T12:45:01.977Z,2828
2017-11-29T12:46:02.524Z,2660
2017-11-29T12:47:02.255Z,2544
2017-11-29T12:48:02.282Z,2512
2017-11-29T12:49:02.809Z,2600
2017-11-29T12:50:02.830Z,2808
2017-11-29T12:51:02.864Z,3184
2017-11-29T12:52:03.120Z,3636
2017-11-29T12:53:02.877Z,4012
2017-11-29T12:54:02.897Z,4168
2017-11-29T12:55:02.658Z,4056
2017-11-29T12:56:02.676Z,3696
2017-11-29T12:57:02.953Z,3228
2017-11-29T12:58:02.993Z,2860
2017-11-29T12:59:02.981Z,2604
2017-11-29T13:00:03.008Z,2416
2017-11-29T13:01:03.080Z,2268
2017-11-29T13:02:02.777Z,2156
2017-11-29T13:03:03.045Z,2076
2017-11-29T13:04:03.078Z,2016
2017-11-29T13:05:03.077Z,1964
2017-11-29T13:06:02.841Z,1916
2017-11-29T13:07:03.157Z,1872
2017-11-29T13:08:02.864Z,1840
2017-11-29T13:09:03.148Z,1804
2017-11-29T13:10:02.899Z,1756
2017-11-29T13:11:02.918Z,1692
2017-11-29T13:12:03.207Z,1620
2017-11-29T13:13:03.207Z,1532
2017-11-29T13:14:02.989Z,1440
2017-11-29T13:15:03.248Z,1352
2017-11-29T13:16:02.998Z,1304
2017-11-29T13:17:02.762Z,1284
2017-11-29T13:18:02.788Z,1276
2017-11-29T13:19:03.116Z,1264
2017-11-29T13:20:03.100Z,1256
2017-11-29T13:21:03.089Z,1244
2017-11-29T13:22:03.162Z,1236
2017-11-29T13:23:02.856Z,1216
2017-11-29T13:24:03.135Z,1192
2017-11-29T13:25:03.133Z,1168
2017-11-29T13:26:03.403Z,1140
2017-11-29T13:27:03.178Z,1124
2017-11-29T13:28:03.201Z,1104
2017-11-29T13:29:02.700Z,1072
2017-11-29T13:30:03.498Z,1048
2017-11-29T13:31:03.282Z,1040
2017-11-29T13:32:03.528Z,1056
2017-11-29T13:33:03.537Z,1088
2017-11-29T13:34:03.566Z,1120
2017-11-29T13:35:03.576Z,1144
2017-11-29T13:36:03.596Z,1144
2017-11-29T13:37:03.345Z,1132
2017-11-29T13:38:03.627Z,1120
2017-11-29T13:39:03.644Z,1112
2017-11-29T13:40:03.463Z,1112
2017-11-29T13:41:03.675Z,1124
2017-11-29T13:42:03.694Z,1140
2017-11-29T13:43:03.703Z,1144
2017-11-29T13:44:03.725Z,1140
2017-11-29T13:45:03.732Z,1128
2017-11-29T13:46:03.238Z,1092
2017-11-29T13:47:03.515Z,1040
2017-11-29T13:48:03.524Z,980
2017-11-29T13:49:03.548Z,932
2017-11-29T13:50:03.301Z,904
2017-11-29T13:51:03.834Z,888
2017-11-29T13:52:03.590Z,884
2017-11-29T13:53:03.354Z,896
2017-11-29T13:54:03.643Z,912
2017-11-29T13:55:03.905Z,940
2017-11-29T13:56:03.710Z,976
2017-11-29T13:57:03.933Z,1020
2017-11-29T13:58:03.948Z,1064
2017-11-29T13:59:03.703Z,1112
2017-11-29T14:00:03.465Z,1148
2017-11-29T14:01:03.486Z,1168